Shediac, Canada
Current Conditions -  °F | °C
As of 4:00 AM on Thursday 27 Nov 2014 (Local Time) from CYQM Reporting Station
Light Snow Light Snow  
Wind Chill: 19°   Ceiling: 500
Heat Index: 32°   Visibility: 1.5mi
Dew Point: 30°   Wind: 24mph
Humidity: 93%   Direction: 40°NE
Pressure: 29.71"   Gusts: 40mph
Location:  46.22°N, 64.54°W
Report Text: CYQM 270800Z 04021G35KT 1 1/2SM -SNPL BLSN OVC005 M00/M01 A2971 RMK SF8 PRESRR SLP064
Loading
Personal Weather Stations






























Interactive Weather Map New forecast layout! Learn more

10-Day Weather Forecast

Advertisements
Track Severe Weather on mobile